• Join FlightAware (Why Join?)
  • Login
  • US Flag 
10:58PM EDT


 

Airport Tracker/Info


-or-


 

Live Flight TrackerFlight Track Log ✈ SKW5631 ✈ 26-Apr-2013 ✈ KDEN - KCOD

Flight Track Log - Related Links

Times and Time Zones

All times are in EDT time to prevent confusion due to time zone crossing. See the SKW5631 flight status page for this flight to view local times or setup timezone preferences in your user account.

Time Position Orientation Groundspeed Altitude Reporting Facility
EDT Latitude Longitude Course Direction KTS MPH feet Rate Location/Type
09:37PM 40.0000 -104.6667 346° North 262 302 9,400  Level Denver TRACON
09:38PM 40.0767 -104.6631 North 286 329 11,500 2,400 Climbing Denver Center
09:39PM 40.1597 -104.6856 348° North 305 351 14,000 2,400 Climbing Denver Center
09:40PM 40.2531 -104.7094 349° North 316 364 16,500 2,160 Climbing Denver Center
09:41PM 40.3491 -104.8275 346° North  Level FlightAware Approximate
09:41PM 40.3431 -104.7328 349° North 329 379 18,500  Level Denver Center
09:42PM 40.4489 -104.8607 346° North  Level FlightAware Approximate
09:42PM 40.4433 -104.7600 348° North 342 394 20,000  Level Denver Center
09:43PM 40.5403 -104.7858 349° North 354 407 22,000 1,500 Climbing Denver Center
09:44PM 40.6386 -104.8128 348° North 359 413 23,100 1,140 Climbing Denver Center
09:45PM 40.7375 -104.8414 348° North 371 427 24,400 1,500 Climbing Denver Center
09:46PM 40.8536 -104.8844 344° North 374 430 26,200 1,380 Climbing Denver Center
09:47PM 40.9539 -104.9331 340° North 381 438 27,300 840 Climbing Denver Center
09:48PM 41.0581 -104.9831 340° North 388 447 28,000 300 Climbing Denver Center
09:49PM 41.1608 -105.0333 340° North 406 467 28,000  Level Denver Center
09:50PM 41.2864 -105.0967 339° North 430 495 28,100 480 Climbing Denver Center
09:51PM 41.3956 -105.1483 340° North 434 499 29,000 960 Climbing Denver Center
09:52PM 41.5203 -105.2119 339° North 430 495 30,200 1,080 Climbing Denver Center
09:53PM 41.6158 -105.2897 329° Northwest 427 491 31,300 840 Climbing Denver Center
09:54PM 41.7156 -105.3989 321° Northwest 416 479 32,000 300 Climbing Denver Center
09:55PM 41.8039 -105.4931 322° Northwest 422 486 32,000  Level Denver Center
09:56PM 41.9236 -105.6239 321° Northwest 431 496 32,000  Level Denver Center
09:57PM 42.0122 -105.7203 321° Northwest 427 491 32,000  Level Denver Center
09:59PM 42.1131 -105.8306 321° Northwest 419 482 32,000  Level Denver Center
10:00PM 42.2003 -105.9283 320° Northwest 423 487 32,000  Level Denver Center
10:01PM 42.3028 -106.0406 321° Northwest 424 488 32,000  Level Denver Center
10:02PM 42.3894 -106.1381 320° Northwest 424 488 32,000  Level Denver Center
10:03PM 42.4628 -106.2206 320° Northwest 427 491 32,000  Level Denver Center
10:04PM 42.5783 -106.3500 320° Northwest 423 487 32,000  Level Denver Center
10:05PM 42.6658 -106.4481 321° Northwest 425 489 32,000  Level Denver Center
10:06PM 42.7672 -106.5619 321° Northwest 423 487 32,000  Level Denver Center
10:07PM 42.8531 -106.6611 320° Northwest 422 486 32,000  Level Denver Center
10:08PM 42.9692 -106.7906 321° Northwest 422 486 32,000  Level Denver Center
10:09PM 43.0544 -106.8908 319° Northwest 422 486 32,000  Level Denver Center
10:10PM 43.1583 -107.0086 320° Northwest 426 490 32,000  Level Denver Center
10:10PM 43.1714 -107.0269 314° West 426 490 32,000  Level Salt Lake Center
10:11PM 43.2722 -107.1433 320° Northwest 425 489 32,000  Level Salt Lake Center
10:12PM 43.3592 -107.2428 320° Northwest 427 491 32,000  Level Denver Center
10:13PM 43.4450 -107.3447 319° Northwest 426 490 32,000  Level Denver Center
10:14PM 43.5450 -107.4622 320° Northwest 424 488 32,000  Level Denver Center
10:15PM 43.6306 -107.5633 319° Northwest 423 487 32,000  Level Denver Center
10:17PM 43.7322 -107.6794 320° Northwest 424 488 32,000  Level Denver Center
10:18PM 43.8178 -107.7819 319° Northwest 424 488 32,000 -900 Level Denver Center
10:19PM 43.9169 -107.8994 320° Northwest 420 483 30,200 -2,400 Descending Denver Center
10:20PM 43.9981 -108.0022 318° Northwest 412 474 27,000 -3,360 Descending Salt Lake Center
10:21PM 44.0703 -108.1436 305° West 403 464 23,300 -3,420 Descending Salt Lake Center
10:22PM 44.1314 -108.2619 306° West 397 457 20,100 -3,060 Descending Salt Lake Center
10:23PM 44.1897 -108.3783 305° West 388 447 17,100 -3,120 Descending Salt Lake Center
10:24PM 44.2539 -108.5081 305° West 376 433 13,800 -2,760 Descending Salt Lake Center
10:25PM 44.3069 -108.6064 307° West 356 410 11,400 -1,860 Descending Salt Lake Center
10:26PM 44.3625 -108.7125 306° West 327 376 10,000 -840 Descending Salt Lake Center
10:27PM 44.4056 -108.7936 307° West 298 343 9,800 -840 Descending Salt Lake Center
10:28PM 44.4628 -108.8378 331° Northwest 264 304 8,300 -1,260 Descending Salt Lake Center
10:29PM 44.5261 -108.8861 331° Northwest 242 278 7,300 -1,020 Descending Salt Lake Center